»·PEaware :: WAT169 KLAS-KSNA

WAT169 :: KLAS-KSNA

FLIGHT INFORMATION

Flight Status: Arrived
Operator: Unknown
More flights by this operator :: More flights under this callsign
Pilot: Marty P. (27464)
Aircraft: BOMBARDIER BD-100 CHALLENGER 300
(CL30)
More flights by this aircraft type
Origin: KLAS McCarran Intl
United States
Destination: KSNA John Wayne-Orange Co
United States
More flights between these airports :: More routes between these airports
Route: BOACH8 WHIGG FEYLA DSNEE4
File this flight plan on PilotEdge
Remarks:
Altitude:
(Current/Filed)
28,000ft
Speed:
(Current/Filed)
470kts
Departed: 20-Mar-20 07:59 PM
Arrived: 20-Mar-20 08:46 PM
Distance/Time
Traveled:
196nm/0:47
Distance/Time
To Go:
Arrived

Flight Plot

Page will automatically refresh every two minutes.

Flight plan parsing failed; only flown route is shown


Map Options




Map Legend


Flown Route
Filed Route
Departure Airport
Arrival Airport
Navaid (VOR, NDB)
Fix

Horizontal Profiles

Position Reports

Time Latitude Longitude Heading Altitude Ground
Speed
20-Mar-20 19:30 36.084093 -115.169884 179 2188ft 0kts
20-Mar-20 19:31 36.084093 -115.169884 179 2188ft 0kts
20-Mar-20 19:32 36.081036 -115.147591 61 2188ft 0kts
20-Mar-20 19:33 36.081397 -115.147775 61 2187ft 0kts
20-Mar-20 19:34 36.081397 -115.147775 61 2187ft 0kts
20-Mar-20 19:35 36.081397 -115.147775 61 2187ft 0kts
20-Mar-20 19:36 36.081397 -115.147775 61 2187ft 0kts
20-Mar-20 19:37 36.081397 -115.147775 61 2187ft 0kts
20-Mar-20 19:38 36.081397 -115.147775 61 2187ft 0kts
20-Mar-20 19:39 36.081397 -115.147775 61 2187ft 0kts
20-Mar-20 19:40 36.081397 -115.147775 61 2187ft 0kts
20-Mar-20 19:41 36.081397 -115.147775 61 2187ft 0kts
20-Mar-20 19:42 36.081397 -115.147775 61 2187ft 0kts
20-Mar-20 19:43 36.081397 -115.147775 61 2187ft 0kts
20-Mar-20 19:44 36.081360 -115.147860 61 2188ft 2kts
20-Mar-20 19:45 36.081086 -115.148462 81 2188ft 0kts
20-Mar-20 19:46 36.081147 -115.148568 156 2188ft 0kts
20-Mar-20 19:47 36.081145 -115.148567 156 2187ft 0kts
20-Mar-20 19:48 36.081145 -115.148567 156 2188ft 0kts
20-Mar-20 19:49 36.079437 -115.147594 155 2188ft 14kts
20-Mar-20 19:50 36.078403 -115.145479 94 2188ft 12kts
20-Mar-20 19:51 36.078266 -115.142587 89 2188ft 8kts
20-Mar-20 19:52 36.078265 -115.140981 90 2188ft 0kts
20-Mar-20 19:53 36.078269 -115.139625 89 2188ft 25kts
20-Mar-20 19:54 36.078279 -115.133563 91 2188ft 14kts
20-Mar-20 19:55 36.078283 -115.127462 89 2188ft 19kts
20-Mar-20 19:56 36.077420 -115.121430 140 2188ft 0kts
20-Mar-20 19:58 36.077419 -115.121429 140 2188ft 0kts
20-Mar-20 19:59 36.076433 -115.125654 268 2188ft 85kts
20-Mar-20 20:00 36.076321 -115.186381 270 4200ft 205kts
20-Mar-20 20:01 36.058685 -115.257608 208 5941ft 268kts
20-Mar-20 20:02 35.976047 -115.298851 195 5938ft 327kts
20-Mar-20 20:03 35.884836 -115.311769 186 10471ft 340kts
20-Mar-20 20:04 35.790564 -115.307271 177 13622ft 351kts
20-Mar-20 20:05 35.690461 -115.300519 199 16597ft 361kts
20-Mar-20 20:06 35.615977 -115.379245 229 20331ft 362kts
20-Mar-20 20:07 35.546921 -115.471477 230 23377ft 373kts
20-Mar-20 20:08 35.476587 -115.565990 230 26099ft 377kts
20-Mar-20 20:09 35.406323 -115.660635 229 28002ft 389kts
20-Mar-20 20:10 35.330998 -115.761847 229 28000ft 403kts
20-Mar-20 20:11 35.255463 -115.863004 229 27983ft 401kts
20-Mar-20 20:12 35.178641 -115.962128 228 27970ft 400kts
20-Mar-20 20:13 35.101491 -116.059447 228 27967ft 399kts
20-Mar-20 20:14 35.024007 -116.156834 227 27967ft 398kts
20-Mar-20 20:15 34.946763 -116.253636 227 27976ft 396kts
20-Mar-20 20:15 34.883792 -116.332439 228 27975ft 396kts
20-Mar-20 20:17 34.794205 -116.446523 228 26254ft 396kts
20-Mar-20 20:18 34.722978 -116.536981 228 25172ft 333kts
20-Mar-20 20:18 34.665202 -116.601435 222 24472ft 352kts
20-Mar-20 20:19 34.587823 -116.677827 221 22711ft 365kts
20-Mar-20 20:21 34.496676 -116.767891 225 20382ft 351kts
20-Mar-20 20:21 34.439911 -116.834122 226 18713ft 331kts
20-Mar-20 20:22 34.373110 -116.911747 225 15779ft 342kts
20-Mar-20 20:24 34.293852 -117.003184 224 13990ft 310kts
20-Mar-20 20:24 34.240384 -117.051978 213 13589ft 282kts
20-Mar-20 20:25 34.168000 -117.103453 204 11540ft 317kts
20-Mar-20 20:26 34.089146 -117.146374 205 12172ft 306kts
20-Mar-20 20:27 34.011003 -117.188373 205 12062ft 311kts
20-Mar-20 20:28 33.950171 -117.261766 228 10199ft 310kts
20-Mar-20 20:29 33.899034 -117.333341 228 8177ft 264kts
20-Mar-20 20:30 33.858561 -117.390332 228 8007ft 210kts
20-Mar-20 20:31 33.818296 -117.450070 246 7996ft 251kts
20-Mar-20 20:32 33.803117 -117.529826 291 7598ft 217kts
20-Mar-20 20:33 33.824074 -117.592115 292 6063ft 203kts
20-Mar-20 20:34 33.843907 -117.651128 291 4976ft 163kts
20-Mar-20 20:35 33.862283 -117.704013 291 3772ft 185kts
20-Mar-20 20:36 33.855762 -117.767349 271 3008ft 194kts
20-Mar-20 20:37 33.877903 -117.809054 10 3054ft 172kts
20-Mar-20 20:38 33.919458 -117.783422 85 3068ft 182kts
20-Mar-20 20:39 33.878106 -117.764706 176 3004ft 184kts
20-Mar-20 20:40 33.837869 -117.786408 248 3010ft 181kts
20-Mar-20 20:41 33.817195 -117.838772 202 2994ft 170kts
20-Mar-20 20:42 33.767639 -117.832742 172 2231ft 182kts
20-Mar-20 20:43 33.725937 -117.837065 210 1118ft 143kts
20-Mar-20 20:44 33.692919 -117.857863 206 344ft 119kts
20-Mar-20 20:45 33.670517 -117.872102 206 63ft 24kts
20-Mar-20 20:46 33.669091 -117.871355 107 63ft 10kts
20-Mar-20 20:47 33.672845 -117.867579 44 63ft 19kts
20-Mar-20 20:48 33.676282 -117.865094 26 63ft 14kts
20-Mar-20 20:49 33.677554 -117.863473 118 63ft 1kts
20-Mar-20 20:50 33.677521 -117.863402 118 63ft 0kts

Navigation Log

Ident Type
Flight plan parsing failed, navigation log unavailable